Time;durP1;ratioP1;P1;durP2;ratioP2;P2;SDS_P1;SDS_P2;PMS_P1;PMS_P2;Temp;Humidity;BMP_temperature;BMP_pressure;BME280_temperature;BME280_humidity;BME280_pressure;Samples;Min_cycle;Max_cycle;Signal;HPM_P1;HPM_P2
2023/03/02 00:01:43;;;;;;;;;53.50;45.00;;;;;4.57;49.30;101590.03;5056987;28;45447;-74
2023/03/02 00:04:15;;;;;;;;;53.00;42.00;;;;;4.11;49.37;101522.41;5061532;28;45513;-73
2023/03/02 00:06:41;;;;;;;;;54.00;43.00;;;;;4.22;49.19;101525.31;5058295;28;45289;-74
2023/03/02 00:09:06;;;;;;;;;58.50;42.50;;;;;4.45;49.58;101553.88;5057447;28;46547;-74
2023/03/02 00:11:34;;;;;;;;;49.50;40.75;;;;;4.63;49.27;101588.00;5056584;28;45326;-74
2023/03/02 00:13:59;;;;;;;;;53.00;41.75;;;;;4.47;49.48;101559.03;5058594;28;45372;-73
2023/03/02 00:16:24;;;;;;;;;49.25;38.50;;;;;4.16;49.43;101512.47;5056619;28;45481;-72
2023/03/02 00:18:50;;;;;;;;;54.25;41.25;;;;;4.65;48.82;101591.41;5055576;28;45422;-74
2023/03/02 00:21:15;;;;;;;;;58.50;45.00;;;;;4.49;48.71;101560.66;5056936;28;45226;-73
2023/03/02 00:23:41;;;;;;;;;53.50;42.75;;;;;4.62;49.77;101583.69;5051275;28;45575;-75
2023/03/02 00:26:07;;;;;;;;;56.75;45.50;;;;;4.20;49.36;101503.47;5057880;28;45406;-74
2023/03/02 00:28:33;;;;;;;;;48.50;41.25;;;;;3.81;49.29;101444.25;5056799;28;46582;-74
2023/03/02 00:30:59;;;;;;;;;55.25;42.25;;;;;4.10;49.16;101491.78;5056964;28;45305;-74
2023/03/02 00:33:25;;;;;;;;;57.25;43.50;;;;;4.61;49.02;101592.53;5057871;28;45265;-73
2023/03/02 00:35:50;;;;;;;;;49.75;41.75;;;;;4.61;49.63;101589.88;5057045;28;45438;-73
2023/03/02 00:38:15;;;;;;;;;52.25;39.75;;;;;4.58;49.62;101585.63;5051924;28;46112;-74
2023/03/02 00:40:45;;;;;;;;;53.50;41.75;;;;;4.52;49.81;101597.34;5056684;28;45485;-73
2023/03/02 00:43:11;;;;;;;;;55.75;42.25;;;;;4.54;49.76;101579.66;5056355;28;45319;-74
2023/03/02 00:45:36;;;;;;;;;55.00;41.75;;;;;3.74;49.59;101453.38;5056015;28;45582;-74
2023/03/02 00:48:01;;;;;;;;;50.50;41.75;;;;;4.55;49.97;101581.38;5056033;28;48343;-75
2023/03/02 00:50:30;;;;;;;;;47.00;40.25;;;;;4.52;50.08;101585.97;5057296;28;45241;-73
2023/03/02 00:52:55;;;;;;;;;50.75;38.50;;;;;4.31;49.33;101561.66;5056170;28;45489;-74
2023/03/02 00:55:20;;;;;;;;;52.50;41.00;;;;;4.16;50.15;101542.28;5056488;28;45604;-75
2023/03/02 00:57:53;;;;;;;;;49.50;38.75;;;;;4.34;49.90;101574.66;5055298;28;46123;-74
2023/03/02 01:00:21;;;;;;;;;54.75;40.50;;;;;4.39;50.09;101595.44;5054117;28;45364;-72
2023/03/02 01:02:47;;;;;;;;;59.00;46.00;;;;;4.39;50.49;101601.56;5053383;28;45367;-76
2023/03/02 01:05:13;;;;;;;;;59.00;44.50;;;;;4.17;50.07;101548.41;5050160;28;45669;-76
2023/03/02 01:07:38;;;;;;;;;44.00;38.25;;;;;4.34;50.06;101582.53;5050036;28;45526;-76
2023/03/02 01:10:04;;;;;;;;;52.75;44.00;;;;;4.33;50.22;101583.47;5053583;28;49827;-74
2023/03/02 01:12:30;;;;;;;;;45.50;35.50;;;;;3.86;50.52;101512.38;5058105;28;45513;-74
2023/03/02 01:14:56;;;;;;;;;52.75;40.75;;;;;4.31;50.54;101582.72;5062789;28;45225;-73
2023/03/02 01:17:24;;;;;;;;;51.75;41.50;;;;;4.09;50.23;101555.88;5056693;28;46178;-73
2023/03/02 01:19:50;;;;;;;;;55.50;43.00;;;;;4.19;50.30;101578.09;5056241;28;45335;-74
2023/03/02 01:22:16;;;;;;;;;47.00;39.75;;;;;4.34;50.40;101594.84;5050937;28;45511;-74
2023/03/02 01:24:41;;;;;;;;;51.25;40.75;;;;;4.33;50.69;101596.66;5056868;28;45474;-73
2023/03/02 01:27:07;;;;;;;;;48.50;41.50;;;;;3.37;49.89;101420.31;5055020;28;53599;-73
2023/03/02 01:29:32;;;;;;;;;53.50;45.00;;;;;4.30;49.90;101578.38;5052101;28;46335;-74
2023/03/02 01:31:58;;;;;;;;;53.00;41.75;;;;;4.06;50.62;101549.00;5055735;28;45325;-73
2023/03/02 01:34:23;;;;;;;;;36.25;29.75;;;;;4.20;50.63;101580.66;5055533;28;45518;-76
2023/03/02 01:36:49;;;;;;;;;61.00;46.25;;;;;4.24;50.67;101576.94;5055941;28;46344;-75
2023/03/02 01:39:14;;;;;;;;;59.50;46.00;;;;;4.17;50.86;101564.19;5054876;28;45507;-72
2023/03/02 01:41:44;;;;;;;;;50.50;41.75;;;;;4.01;50.57;101545.75;5057224;28;45407;-74
2023/03/02 01:44:31;;;;;;;;;47.50;41.00;;;;;4.20;51.48;101564.84;5049496;28;45462;-73
2023/03/02 01:46:56;;;;;;;;;56.00;46.50;;;;;4.16;51.44;101567.75;5056443;28;45962;-72
2023/03/02 01:49:22;;;;;;;;;51.50;43.00;;;;;3.98;51.02;101530.13;5056741;28;45375;-75
2023/03/02 01:51:47;;;;;;;;;49.25;40.50;;;;;3.90;50.66;101506.88;5056429;28;45531;-73
2023/03/02 01:54:21;;;;;;;;;54.00;42.50;;;;;4.31;50.58;101560.81;5045203;28;45501;-73
2023/03/02 01:56:49;;;;;;;;;47.50;40.50;;;;;4.19;50.31;101550.00;5044366;28;46324;-74
2023/03/02 01:59:18;;;;;;;;;55.50;41.00;;;;;3.89;51.23;101507.78;5056139;28;45439;-74
2023/03/02 02:01:49;;;;;;;;;44.00;37.50;;;;;3.21;51.37;101394.03;5056754;28;45260;-75
2023/03/02 02:04:15;;;;;;;;;55.25;45.25;;;;;4.03;50.96;101551.78;5056324;28;45619;-74
2023/03/02 02:06:46;;;;;;;;;59.00;44.25;;;;;3.69;51.41;101513.28;5054585;28;48792;-74
2023/03/02 02:09:14;;;;;;;;;54.75;44.00;;;;;4.03;51.82;101567.56;5056177;28;45419;-73
2023/03/02 02:11:41;;;;;;;;;51.25;41.75;;;;;3.34;51.29;101458.13;5055447;28;45302;-73
2023/03/02 02:14:07;;;;;;;;;54.00;42.50;;;;;3.82;51.44;101538.00;5055461;28;45210;-71
2023/03/02 02:16:34;;;;;;;;;48.75;40.50;;;;;3.93;51.29;101546.16;5055050;28;45650;-74
2023/03/02 02:19:00;;;;;;;;;45.00;39.00;;;;;3.41;52.00;101486.75;5055189;28;45395;-73
2023/03/02 02:21:27;;;;;;;;;56.50;44.00;;;;;3.75;51.73;101541.88;5055903;28;45340;-73
2023/03/02 02:24:14;;;;;;;;;56.25;45.00;;;;;3.76;51.84;101555.88;5056571;28;45431;-73
2023/03/02 02:26:48;;;;;;;;;40.75;38.25;;;;;3.75;51.48;101552.38;5047669;28;47884;-74
2023/03/02 02:29:29;;;;;;;;;49.75;42.25;;;;;3.47;51.57;101504.81;5052423;28;45442;-74
2023/03/02 02:32:25;;;;;;;;;47.75;38.25;;;;;3.72;51.88;101546.44;5056119;28;45247;-72
2023/03/02 02:35:00;;;;;;;;;60.50;47.50;;;;;3.62;52.05;101544.31;5054695;28;45534;-72
2023/03/02 02:37:37;;;;;;;;;55.00;42.25;;;;;3.57;52.29;101542.81;5055398;28;46761;-71
2023/03/02 02:40:08;;;;;;;;;53.75;43.50;;;;;3.63;52.50;101547.78;5055932;28;45513;-70
2023/03/02 02:42:39;;;;;;;;;54.75;43.00;;;;;3.40;52.53;101498.16;5056620;28;45341;-71
2023/03/02 02:45:16;;;;;;;;;49.50;39.00;;;;;3.48;52.63;101507.34;5056996;28;45568;-72
2023/03/02 02:47:42;;;;;;;;;55.00;45.25;;;;;3.49;52.96;101529.25;5051086;28;47133;-74
2023/03/02 02:50:17;;;;;;;;;46.75;40.25;;;;;3.46;52.73;101516.25;5059300;28;45501;-72
2023/03/02 02:52:45;;;;;;;;;54.00;45.00;;;;;3.57;52.83;101534.94;5051242;28;45270;-72
2023/03/02 02:55:18;;;;;;;;;47.25;39.50;;;;;3.65;52.10;101535.41;5059188;28;45579;-72
2023/03/02 02:57:44;;;;;;;;;54.50;41.00;;;;;3.66;52.65;101534.47;5058612;28;45485;-75
2023/03/02 03:00:18;;;;;;;;;47.25;41.25;;;;;3.46;52.87;101503.13;5059099;28;45269;-74
2023/03/02 03:02:50;;;;;;;;;53.00;41.50;;;;;3.58;53.00;101524.34;5053095;28;45443;-71
2023/03/02 03:05:16;;;;;;;;;47.75;39.00;;;;;3.34;52.89;101481.78;5059329;28;45513;-72
2023/03/02 03:07:41;;;;;;;;;46.50;40.25;;;;;3.17;53.29;101471.28;5058818;28;45803;-72
2023/03/02 03:10:18;;;;;;;;;57.00;45.25;;;;;3.48;53.07;101523.13;5059138;28;45500;-72
2023/03/02 03:12:44;;;;;;;;;58.75;43.75;;;;;2.91;52.45;101417.47;5058908;28;45355;-74
2023/03/02 03:15:10;;;;;;;;;58.50;43.50;;;;;2.89;53.12;101442.13;5058846;28;45291;-74
2023/03/02 03:17:36;;;;;;;;;57.50;44.25;;;;;3.44;52.97;101518.13;5058414;28;45739;-73
2023/03/02 03:20:07;;;;;;;;;54.75;42.00;;;;;2.96;53.01;101461.88;5054810;28;45538;-73
2023/03/02 03:22:35;;;;;;;;;57.50;46.00;;;;;3.40;53.33;101548.09;5050895;28;45459;-74
2023/03/02 03:25:00;;;;;;;;;55.00;44.00;;;;;2.79;53.55;101433.00;5048734;28;45580;-74
2023/03/02 03:27:26;;;;;;;;;56.00;45.00;;;;;2.87;53.31;101467.59;5058555;28;46591;-74
2023/03/02 03:29:51;;;;;;;;;46.50;39.00;;;;;3.30;54.29;101530.19;5057531;28;45421;-75
2023/03/02 03:32:18;;;;;;;;;55.50;43.50;;;;;3.32;53.95;101532.72;5058952;28;45443;-75
2023/03/02 03:34:44;;;;;;;;;54.75;44.00;;;;;3.35;53.93;101538.66;5058591;28;45589;-75
2023/03/02 03:37:15;;;;;;;;;57.50;44.00;;;;;3.31;53.86;101531.88;5057374;28;46821;-74
2023/03/02 03:39:41;;;;;;;;;54.75;44.00;;;;;3.33;53.84;101535.28;5059035;28;46791;-74
2023/03/02 03:42:06;;;;;;;;;57.25;46.25;;;;;3.08;53.99;101491.94;5059116;28;45400;-74
2023/03/02 03:44:32;;;;;;;;;54.50;42.25;;;;;3.27;53.88;101532.97;5059416;28;45278;-72
2023/03/02 03:46:58;;;;;;;;;55.00;43.00;;;;;2.94;53.49;101472.47;5058232;28;45888;-71
2023/03/02 03:49:25;;;;;;;;;57.00;43.75;;;;;3.12;53.45;101502.22;5058262;28;45364;-73
2023/03/02 03:51:50;;;;;;;;;49.00;40.00;;;;;3.01;53.43;101465.16;5058141;28;45487;-75
2023/03/02 03:54:15;;;;;;;;;50.75;42.75;;;;;3.45;52.80;101525.06;5057216;28;45240;-75
2023/03/02 03:56:45;;;;;;;;;51.50;42.50;;;;;3.38;53.41;101513.16;5057814;28;46567;-75
2023/03/02 03:59:14;;;;;;;;;54.50;44.25;;;;;3.09;53.41;101456.84;5057928;28;45574;-73
2023/03/02 04:01:46;;;;;;;;;63.75;49.25;;;;;3.42;53.74;101528.72;5053960;28;45309;-73
2023/03/02 04:04:14;;;;;;;;;53.25;44.50;;;;;3.48;53.49;101532.78;5057045;28;45645;-75
2023/03/02 04:06:40;;;;;;;;;52.25;44.50;;;;;3.13;53.39;101484.66;5067787;28;46729;-75
2023/03/02 04:09:06;;;;;;;;;56.75;42.25;;;;;3.44;53.14;101529.47;5049885;28;45462;-72
2023/03/02 04:11:34;;;;;;;;;57.50;43.25;;;;;3.33;53.18;101530.03;5049762;28;45275;-74
2023/03/02 04:14:00;;;;;;;;;45.75;38.50;;;;;3.47;53.56;101541.63;5058091;28;45220;-73
2023/03/02 04:16:26;;;;;;;;;56.25;43.25;;;;;3.35;53.79;101520.28;5057783;28;45799;-74
2023/03/02 04:18:52;;;;;;;;;55.75;46.00;;;;;3.26;52.99;101502.38;5057608;28;45396;-73
2023/03/02 04:21:17;;;;;;;;;60.75;48.00;;;;;3.07;53.73;101490.25;5057530;28;45517;-73
2023/03/02 04:23:42;;;;;;;;;55.50;45.75;;;;;2.71;53.57;101426.34;5058322;28;45283;-72
2023/03/02 04:26:08;;;;;;;;;58.75;45.25;;;;;3.22;53.28;101532.38;5049080;28;46383;-74
2023/03/02 04:28:33;;;;;;;;;50.00;42.50;;;;;2.83;53.40;101473.94;5049126;28;45311;-74
2023/03/02 04:30:59;;;;;;;;;56.25;46.50;;;;;3.17;53.77;101521.22;5057440;28;45517;-73
2023/03/02 04:33:24;;;;;;;;;58.25;42.75;;;;;3.21;54.13;101540.31;5057219;28;45303;-72
2023/03/02 04:35:49;;;;;;;;;57.25;48.00;;;;;3.09;54.08;101520.75;5055685;28;47497;-73
2023/03/02 04:38:15;;;;;;;;;56.00;44.25;;;;;2.65;54.19;101445.06;5057658;28;45414;-73
2023/03/02 04:40:40;;;;;;;;;58.75;45.75;;;;;2.10;54.17;101345.44;5057323;28;45304;-74
2023/03/02 04:43:06;;;;;;;;;56.75;47.75;;;;;2.54;53.84;101418.47;5055826;28;45351;-72
2023/03/02 04:45:31;;;;;;;;;62.25;46.25;;;;;2.70;53.95;101458.78;5056598;28;45507;-75
2023/03/02 04:47:56;;;;;;;;;50.25;40.25;;;;;2.98;54.00;101507.31;5057010;28;45359;-72
2023/03/02 04:50:22;;;;;;;;;60.00;44.50;;;;;2.97;54.20;101505.59;5057397;28;45523;-74
2023/03/02 04:52:49;;;;;;;;;63.75;47.50;;;;;3.32;53.48;101565.13;5056151;28;45276;-72
2023/03/02 04:55:21;;;;;;;;;53.75;44.25;;;;;3.07;53.71;101517.38;5056438;28;45872;-74
2023/03/02 04:57:46;;;;;;;;;57.25;45.75;;;;;3.11;53.35;101518.91;5056478;28;45514;-73
2023/03/02 05:00:13;;;;;;;;;54.50;44.00;;;;;3.22;53.94;101535.00;5055457;28;45553;-74
2023/03/02 05:02:39;;;;;;;;;60.50;45.00;;;;;3.33;53.74;101551.03;5060503;28;45482;-70
2023/03/02 05:05:05;;;;;;;;;56.00;45.00;;;;;3.07;53.72;101491.09;5058688;28;47466;-72
2023/03/02 05:07:30;;;;;;;;;50.25;44.00;;;;;3.36;53.83;101539.53;5057447;28;45382;-74
2023/03/02 05:09:56;;;;;;;;;59.50;48.50;;;;;3.19;53.43;101505.38;5057316;28;45533;-73
2023/03/02 05:12:21;;;;;;;;;59.50;46.00;;;;;3.29;53.74;101539.00;5055558;28;45436;-72
2023/03/02 05:14:46;;;;;;;;;55.75;46.25;;;;;2.90;53.50;101462.19;5057148;28;45887;-74
2023/03/02 05:17:12;;;;;;;;;58.75;46.25;;;;;3.07;53.82;101488.47;5056582;28;45503;-74
2023/03/02 05:19:37;;;;;;;;;61.50;48.50;;;;;3.27;53.59;101517.19;5056023;28;45250;-74
2023/03/02 05:22:03;;;;;;;;;57.25;47.50;;;;;3.10;53.44;101514.56;5056008;28;45573;-73
2023/03/02 05:24:28;;;;;;;;;59.75;47.50;;;;;3.15;54.14;101530.94;5056548;28;46606;-72
2023/03/02 05:26:53;;;;;;;;;52.25;42.50;;;;;2.98;54.13;101509.94;5056566;28;45492;-72
2023/03/02 05:29:19;;;;;;;;;57.25;46.75;;;;;3.14;53.93;101571.28;5056649;28;45565;-73
2023/03/02 05:31:45;;;;;;;;;59.75;49.75;;;;;3.21;54.12;101556.94;5057002;28;45454;-72
2023/03/02 05:34:15;;;;;;;;;60.50;46.50;;;;;2.28;54.21;101379.56;5056433;28;46611;-73
2023/03/02 05:36:41;;;;;;;;;59.50;47.00;;;;;3.04;53.39;101502.59;5055172;28;45372;-73
2023/03/02 05:39:07;;;;;;;;;56.00;44.75;;;;;3.36;53.82;101540.38;5056646;28;45370;-75
2023/03/02 05:41:34;;;;;;;;;51.75;39.50;;;;;2.91;53.40;101485.75;5057098;28;45568;-72
2023/03/02 05:43:59;;;;;;;;;56.25;47.75;;;;;3.26;53.73;101535.69;5054779;28;46644;-74
2023/03/02 05:46:28;;;;;;;;;59.75;48.00;;;;;3.17;53.80;101544.84;5055821;28;45392;-75
2023/03/02 05:48:53;;;;;;;;;59.75;49.75;;;;;3.07;54.97;101554.13;5056156;28;45493;-74
2023/03/02 05:51:19;;;;;;;;;61.00;49.00;;;;;2.68;54.23;101492.16;5055334;28;45627;-73
2023/03/02 05:53:44;;;;;;;;;62.00;51.00;;;;;2.04;54.46;101381.59;5053087;28;45543;-74
2023/03/02 05:56:10;;;;;;;;;62.25;46.50;;;;;3.02;54.45;101556.16;5056265;28;45401;-73
2023/03/02 05:58:35;;;;;;;;;53.75;41.75;;;;;2.67;54.60;101519.34;5054900;28;45383;-75
2023/03/02 06:01:01;;;;;;;;;59.75;45.50;;;;;2.57;54.06;101494.44;5056347;28;45277;-74
2023/03/02 06:03:26;;;;;;;;;61.75;49.00;;;;;2.94;54.69;101538.13;5055758;28;45809;-75
2023/03/02 06:05:52;;;;;;;;;62.25;50.25;;;;;2.78;54.87;101537.16;5056212;28;45319;-72
2023/03/02 06:08:20;;;;;;;;;51.50;43.00;;;;;2.87;54.89;101572.66;5056272;28;45480;-76
2023/03/02 06:10:46;;;;;;;;;61.25;48.50;;;;;2.84;55.30;101567.56;5055414;28;45311;-75
2023/03/02 06:13:11;;;;;;;;;64.00;49.75;;;;;2.73;54.91;101534.78;5056665;28;45246;-73
2023/03/02 06:15:38;;;;;;;;;59.50;47.75;;;;;2.86;55.00;101574.44;5058501;28;46201;-73
2023/03/02 06:18:03;;;;;;;;;59.50;48.00;;;;;2.54;54.86;101510.34;5054524;28;45464;-72
2023/03/02 06:20:29;;;;;;;;;58.75;46.50;;;;;2.14;55.13;101451.03;5058022;28;45550;-74
2023/03/02 06:22:54;;;;;;;;;63.00;48.00;;;;;2.59;55.29;101542.47;5059604;28;46355;-74
2023/03/02 06:25:22;;;;;;;;;60.75;48.25;;;;;2.73;55.01;101561.03;5059246;28;45206;-74
2023/03/02 06:27:52;;;;;;;;;54.75;43.00;;;;;2.55;55.55;101535.66;5058178;28;45447;-74
2023/03/02 06:30:23;;;;;;;;;57.75;47.50;;;;;2.85;55.16;101572.72;5060220;28;45231;-75
2023/03/02 06:32:48;;;;;;;;;55.75;45.75;;;;;2.84;55.42;101580.69;5057937;28;48482;-75
2023/03/02 06:35:14;;;;;;;;;49.50;43.25;;;;;2.80;55.06;101563.34;5057922;28;45419;-73
2023/03/02 06:37:40;;;;;;;;;62.75;48.25;;;;;2.85;54.72;101564.00;5059273;28;45277;-73
2023/03/02 06:40:09;;;;;;;;;59.75;46.50;;;;;3.02;54.47;101577.16;5059659;28;45389;-75
2023/03/02 06:42:36;;;;;;;;;59.75;44.25;;;;;3.04;54.97;101596.34;5058636;28;46184;-74
2023/03/02 06:45:02;;;;;;;;;61.75;46.75;;;;;2.89;54.37;101560.28;5054696;28;45403;-73
2023/03/02 06:47:28;;;;;;;;;64.50;48.50;;;;;3.09;54.68;101585.59;5059229;28;45418;-75
2023/03/02 06:49:53;;;;;;;;;58.00;48.75;;;;;2.71;54.33;101523.50;5058944;28;45609;-73
2023/03/02 06:52:18;;;;;;;;;59.25;48.50;;;;;2.77;54.92;101563.50;5058908;28;46127;-74
2023/03/02 06:54:44;;;;;;;;;65.75;52.25;;;;;2.91;54.28;101582.94;5057959;28;45660;-73
2023/03/02 06:57:09;;;;;;;;;63.00;50.75;;;;;2.53;54.38;101534.88;5058273;28;45397;-73
2023/03/02 06:59:35;;;;;;;;;57.50;45.50;;;;;2.33;54.71;101501.72;5058350;28;52283;-73
2023/03/02 07:02:00;;;;;;;;;53.25;43.25;;;;;2.77;54.82;101571.38;5052496;28;46066;-73
2023/03/02 07:04:28;;;;;;;;;62.50;49.00;;;;;2.58;54.56;101546.00;5061668;28;45356;-75
2023/03/02 07:06:54;;;;;;;;;66.75;52.75;;;;;2.77;55.31;101590.63;5042590;28;45293;-72
2023/03/02 07:09:19;;;;;;;;;63.50;48.25;;;;;2.29;55.15;101513.28;5061772;28;45437;-73
2023/03/02 07:11:45;;;;;;;;;61.00;50.25;;;;;2.88;54.68;101611.97;5060819;28;45544;-76
2023/03/02 07:14:10;;;;;;;;;60.50;46.75;;;;;2.67;54.91;101573.63;5054396;28;45480;-76
2023/03/02 07:16:36;;;;;;;;;60.75;48.00;;;;;2.83;55.29;101600.00;5054188;28;45793;-73
2023/03/02 07:19:01;;;;;;;;;64.00;50.00;;;;;2.86;54.91;101579.69;5058368;28;45395;-76
2023/03/02 07:21:27;;;;;;;;;58.50;48.00;;;;;3.02;54.23;101598.19;5059922;28;47132;-77
2023/03/02 07:23:52;;;;;;;;;60.00;48.00;;;;;2.86;54.42;101565.69;5055786;28;45636;-75
2023/03/02 07:26:18;;;;;;;;;61.25;49.25;;;;;2.78;54.56;101537.16;5058753;28;45517;-76
2023/03/02 07:28:43;;;;;;;;;62.75;49.50;;;;;3.09;54.40;101602.19;5056078;28;45667;-74
2023/03/02 07:31:10;;;;;;;;;56.00;41.75;;;;;2.98;54.39;101571.19;5058029;28;46118;-76
2023/03/02 07:33:37;;;;;;;;;55.50;43.75;;;;;3.16;54.54;101589.59;5058414;28;45259;-75
2023/03/02 07:36:03;;;;;;;;;63.50;49.50;;;;;2.80;54.01;101513.47;5057323;28;45549;-76
2023/03/02 07:38:28;;;;;;;;;60.25;44.00;;;;;3.26;54.16;101585.59;5057010;28;45557;-75
2023/03/02 07:40:54;;;;;;;;;62.50;49.00;;;;;2.44;53.75;101427.75;5059044;28;46101;-73
2023/03/02 07:43:19;;;;;;;;;60.75;51.00;;;;;3.04;53.51;101501.75;5073600;28;45865;-75
2023/03/02 07:45:45;;;;;;;;;64.50;52.25;;;;;3.08;53.42;101521.69;5058361;28;45226;-76
2023/03/02 07:48:10;;;;;;;;;60.25;44.75;;;;;3.25;52.96;101520.84;5059913;28;45244;-77
2023/03/02 07:50:36;;;;;;;;;63.00;49.75;;;;;2.22;52.22;101303.78;5057693;28;45777;-73
2023/03/02 07:53:01;;;;;;;;;59.25;48.00;;;;;4.25;51.90;101597.06;5052330;28;45392;-74
2023/03/02 07:55:27;;;;;;;;;60.50;49.50;;;;;3.57;50.89;101427.13;5058341;28;45310;-76
2023/03/02 07:57:53;;;;;;;;;61.75;48.25;;;;;4.80;49.88;101585.25;5056707;28;45565;-75
2023/03/02 08:00:19;;;;;;;;;66.25;49.75;;;;;4.79;50.78;101584.41;5057051;28;46102;-75
2023/03/02 08:02:45;;;;;;;;;59.25;47.00;;;;;4.71;49.66;101547.13;5053888;28;46167;-73
2023/03/02 08:05:11;;;;;;;;;61.75;50.75;;;;;5.17;49.46;101590.13;5063575;28;45422;-77
2023/03/02 08:07:37;;;;;;;;;65.75;51.50;;;;;5.03;48.65;101549.72;5058058;28;45311;-74
2023/03/02 08:10:03;;;;;;;;;46.25;41.25;;;;;5.19;49.26;101588.25;5050119;28;46120;-74
2023/03/02 08:12:29;;;;;;;;;60.00;48.00;;;;;5.26;48.40;101561.56;5057393;28;45448;-73
2023/03/02 08:14:55;;;;;;;;;62.50;50.00;;;;;5.56;47.83;101595.81;5054178;28;45504;-73
2023/03/02 08:17:21;;;;;;;;;58.25;48.00;;;;;4.79;47.92;101449.22;5064060;28;45389;-74
2023/03/02 08:19:46;;;;;;;;;61.00;49.50;;;;;5.18;47.31;101507.47;5060826;27;46503;-75
2023/03/02 08:22:12;;;;;;;;;62.50;49.25;;;;;5.75;47.54;101607.81;5054694;28;45368;-74
2023/03/02 08:24:39;;;;;;;;;50.75;41.50;;;;;5.73;47.29;101551.66;5057596;28;45516;-76
2023/03/02 08:27:05;;;;;;;;;61.50;50.75;;;;;6.29;46.49;101575.53;5056139;28;45522;-77
2023/03/02 08:29:30;;;;;;;;;65.25;51.00;;;;;6.79;45.46;101559.06;5056437;28;46292;-78
2023/03/02 08:31:57;;;;;;;;;60.75;48.50;;;;;7.27;43.87;101554.16;5056305;28;45392;-76
2023/03/02 08:34:23;;;;;;;;;59.00;47.50;;;;;7.81;42.72;101596.34;5051483;28;46093;-73
2023/03/02 08:36:48;;;;;;;;;63.00;47.00;;;;;8.10;42.32;101592.53;5054841;28;45527;-76
2023/03/02 08:39:14;;;;;;;;;61.50;50.75;;;;;8.44;41.38;101582.25;5050803;28;46414;-74
2023/03/02 08:41:40;;;;;;;;;65.00;48.00;;;;;8.96;40.17;101591.69;5057824;28;46236;-74
2023/03/02 08:44:06;;;;;;;;;66.00;49.50;;;;;9.41;39.96;101587.41;5060167;28;45488;-73
2023/03/02 08:46:31;;;;;;;;;62.00;49.00;;;;;9.59;38.81;101546.19;5055210;28;45328;-74
2023/03/02 08:48:57;;;;;;;;;60.75;48.50;;;;;8.88;38.80;101421.72;5055097;28;46150;-74
2023/03/02 08:51:24;;;;;;;;;61.00;49.25;;;;;9.66;38.31;101539.47;5059684;27;45507;-74
2023/03/02 08:53:53;;;;;;;;;58.50;47.50;;;;;9.78;38.60;101569.53;5055953;28;45583;-73
2023/03/02 08:56:23;;;;;;;;;63.50;50.50;;;;;9.77;38.25;101551.91;5055683;28;45338;-75
2023/03/02 08:58:50;;;;;;;;;55.75;46.00;;;;;10.10;38.15;101563.53;5053068;28;46276;-77
2023/03/02 09:01:28;;;;;;;;;59.00;46.00;;;;;10.55;36.80;101574.97;5056365;28;45717;-75
2023/03/02 09:03:55;;;;;;;;;54.25;46.00;;;;;9.99;36.43;101411.13;5055772;28;45490;-74
2023/03/02 09:06:20;;;;;;;;;59.75;48.00;;;;;10.79;36.28;101535.75;5055728;28;45444;-75
2023/03/02 09:08:46;;;;;;;;;58.25;47.00;;;;;10.46;36.11;101475.56;5056114;28;45537;-75
2023/03/02 09:11:12;;;;;;;;;62.25;50.00;;;;;10.99;36.00;101566.03;5055662;28;45553;-75
2023/03/02 09:13:38;;;;;;;;;60.50;48.25;;;;;10.82;35.69;101521.38;5051323;28;45473;-75
2023/03/02 09:16:04;;;;;;;;;55.25;46.00;;;;;10.60;36.41;101508.97;5053967;28;45452;-75
2023/03/02 09:18:30;;;;;;;;;58.50;47.25;;;;;10.44;36.14;101535.13;5052525;28;45614;-73
2023/03/02 09:20:56;;;;;;;;;55.25;45.00;;;;;10.53;36.23;101551.19;5058321;28;45299;-72
2023/03/02 09:23:23;;;;;;;;;61.00;46.25;;;;;8.43;37.13;101223.69;5054218;28;45566;-74
2023/03/02 09:25:49;;;;;;;;;60.50;48.25;;;;;10.43;37.18;101558.22;5055347;28;45169;-74
2023/03/02 09:28:15;;;;;;;;;59.75;47.50;;;;;10.49;36.29;101571.00;5053662;28;48334;-74
2023/03/02 09:30:46;;;;;;;;;59.50;47.75;;;;;10.46;36.23;101557.97;5086029;27;45482;-74
2023/03/02 09:33:12;;;;;;;;;59.75;47.25;;;;;10.54;37.17;101558.19;5056110;28;45407;-72
2023/03/02 09:35:37;;;;;;;;;57.50;45.25;;;;;11.27;35.05;101561.94;5055811;28;45586;-73
2023/03/02 09:38:03;;;;;;;;;56.25;46.00;;;;;11.73;34.79;101524.25;5053120;28;48440;-74
2023/03/02 09:40:29;;;;;;;;;62.25;50.50;;;;;11.68;34.05;101510.50;5053900;28;46378;-72
2023/03/02 09:43:13;;;;;;;;;55.75;45.25;;;;;11.83;34.51;101537.66;5056857;28;45327;-71
2023/03/02 09:45:56;;;;;;;;;57.75;47.25;;;;;12.03;33.48;101533.28;5050651;28;45195;-72
2023/03/02 09:48:27;;;;;;;;;56.75;45.25;;;;;12.22;33.67;101512.00;5052874;28;47437;-74
2023/03/02 09:51:23;;;;;;;;;55.75;45.75;;;;;12.55;32.78;101549.97;5053019;28;45825;-72
2023/03/02 09:54:19;;;;;;;;;61.00;47.00;;;;;12.20;33.15;101553.94;5054325;28;45390;-75
2023/03/02 09:56:48;;;;;;;;;57.00;46.50;;;;;11.84;33.90;101542.88;5059716;28;45517;-74
2023/03/02 09:59:16;;;;;;;;;53.50;43.50;;;;;11.68;34.27;101558.44;5059795;28;46558;-74
2023/03/02 10:01:49;;;;;;;;;58.75;47.00;;;;;11.20;35.13;101553.59;5058474;28;45499;-75
2023/03/02 10:04:26;;;;;;;;;57.00;47.00;;;;;10.97;35.12;101552.00;5060072;28;45450;-74
2023/03/02 10:06:56;;;;;;;;;57.75;46.50;;;;;10.86;35.79;101557.41;5060528;28;45600;-74
2023/03/02 10:09:22;;;;;;;;;52.50;44.50;;;;;10.59;36.02;101529.41;5059548;28;45352;-76
2023/03/02 10:12:00;;;;;;;;;60.00;47.25;;;;;10.38;36.38;101560.38;5060291;28;45456;-75
2023/03/02 10:14:38;;;;;;;;;61.75;48.25;;;;;9.81;36.77;101534.78;5056000;28;45289;-76
2023/03/02 10:17:15;;;;;;;;;58.25;48.00;;;;;9.84;37.76;101560.25;5055072;28;45504;-75
2023/03/02 10:19:46;;;;;;;;;58.75;46.75;;;;;9.58;37.94;101541.00;5058976;28;46860;-76
2023/03/02 10:22:25;;;;;;;;;62.25;49.50;;;;;9.11;38.01;101480.00;5057330;28;45412;-73
2023/03/02 10:25:15;;;;;;;;;58.50;46.75;;;;;9.31;38.60;101536.00;5054846;28;45508;-77
2023/03/02 10:27:42;;;;;;;;;61.25;48.25;;;;;9.26;38.75;101567.34;5058811;28;45506;-72
2023/03/02 10:30:32;;;;;;;;;59.25;47.25;;;;;8.36;39.30;101433.53;5056296;28;46359;-72
2023/03/02 10:33:09;;;;;;;;;64.25;50.00;;;;;8.66;39.42;101561.19;5087703;27;45273;-73
2023/03/02 10:35:36;;;;;;;;;58.00;46.75;;;;;8.53;40.24;101552.41;5055361;28;45914;-73
2023/03/02 10:38:12;;;;;;;;;58.50;46.75;;;;;8.49;40.49;101556.25;5056431;28;45449;-74
2023/03/02 10:40:41;;;;;;;;;66.00;51.00;;;;;8.11;41.67;101554.50;5058535;28;45792;-74
2023/03/02 10:43:15;;;;;;;;;63.75;50.50;;;;;7.18;41.78;101409.31;5058753;28;45655;-74
2023/03/02 10:45:41;;;;;;;;;65.75;49.00;;;;;7.68;41.55;101494.91;5059815;28;45228;-78
2023/03/02 10:48:10;;;;;;;;;57.75;47.75;;;;;8.03;41.18;101548.91;5059100;28;45626;-76
2023/03/02 10:50:36;;;;;;;;;57.25;46.25;;;;;7.49;41.92;101479.47;5053658;28;47309;-76
2023/03/02 10:53:05;;;;;;;;;64.25;50.25;;;;;6.84;41.91;101385.22;5057932;28;45431;-78
2023/03/02 10:55:32;;;;;;;;;63.25;49.00;;;;;6.90;42.24;101413.84;5055918;28;45530;-74
2023/03/02 10:58:18;;;;;;;;;59.75;48.50;;;;;7.55;42.23;101511.63;5058479;28;45478;-77
2023/03/02 11:00:58;;;;;;;;;64.25;51.50;;;;;7.84;42.63;101553.78;5052504;28;46462;-77
2023/03/02 11:03:23;;;;;;;;;61.00;48.50;;;;;7.70;41.57;101530.91;5056948;28;45364;-76
2023/03/02 11:05:49;;;;;;;;;51.50;40.75;;;;;7.40;42.43;101486.22;5058820;28;46672;-75
2023/03/02 11:08:23;;;;;;;;;62.00;48.25;;;;;6.67;42.99;101417.19;5060259;28;45549;-76
2023/03/02 11:10:56;;;;;;;;;59.00;48.50;;;;;7.02;43.50;101504.72;5058673;28;45647;-77
2023/03/02 11:13:34;;;;;;;;;63.75;49.75;;;;;6.92;43.87;101506.25;5059336;28;45462;-76
2023/03/02 11:16:20;;;;;;;;;63.75;51.00;;;;;7.21;43.24;101539.56;5059069;28;45452;-76
2023/03/02 11:18:57;;;;;;;;;62.75;48.50;;;;;7.24;43.72;101527.94;5055147;28;45430;-76
2023/03/02 11:21:34;;;;;;;;;63.25;49.00;;;;;6.98;43.63;101487.34;5048570;28;46566;-77